createdAt,value
2023-07-24T00:00:31.707Z,2.50
2023-07-24T00:02:58.479Z,1.33
2023-07-24T00:05:25.193Z,1.33
2023-07-24T00:07:51.972Z,1.13
2023-07-24T00:10:18.828Z,1.30
2023-07-24T00:12:45.488Z,1.65
2023-07-24T00:15:12.222Z,1.50
2023-07-24T00:17:38.985Z,1.40
2023-07-24T00:20:07.157Z,1.20
2023-07-24T00:22:33.897Z,1.60
2023-07-24T00:25:00.534Z,1.63
2023-07-24T00:27:27.223Z,1.73
2023-07-24T00:29:54.147Z,1.23
2023-07-24T00:32:21.539Z,1.58
2023-07-24T00:34:48.519Z,1.38
2023-07-24T00:37:15.516Z,1.50
2023-07-24T00:39:42.238Z,1.80
2023-07-24T00:42:08.953Z,1.52
2023-07-24T00:44:35.828Z,1.58
2023-07-24T00:47:02.856Z,1.40
2023-07-24T00:49:29.699Z,1.98
2023-07-24T00:51:56.444Z,1.30
2023-07-24T00:54:30.555Z,1.85
2023-07-24T00:56:57.392Z,1.20
2023-07-24T00:59:24.091Z,1.27
2023-07-24T01:01:51.270Z,1.60
2023-07-24T01:04:18.817Z,1.30
2023-07-24T01:06:45.646Z,1.75
2023-07-24T01:09:12.612Z,1.48
2023-07-24T01:11:48.666Z,1.45
2023-07-24T01:14:28.569Z,1.35
2023-07-24T01:16:57.506Z,1.35
2023-07-24T01:19:46.684Z,1.40
2023-07-24T01:22:22.394Z,1.65
2023-07-24T01:24:53.607Z,1.40
2023-07-24T01:27:26.904Z,1.10
2023-07-24T01:29:54.158Z,2.13
2023-07-24T01:32:21.464Z,1.73
2023-07-24T01:34:49.045Z,1.80
2023-07-24T01:37:17.685Z,1.65
2023-07-24T01:39:46.276Z,1.85
2023-07-24T01:42:14.289Z,1.73
2023-07-24T01:44:41.326Z,1.70
2023-07-24T01:47:08.113Z,1.65
2023-07-24T01:49:34.931Z,1.80
2023-07-24T01:52:01.643Z,1.63
2023-07-24T01:54:28.297Z,1.50
2023-07-24T01:56:54.954Z,1.50
2023-07-24T01:59:21.604Z,1.58
2023-07-24T02:01:48.633Z,1.63
2023-07-24T02:04:15.557Z,1.88
2023-07-24T02:06:42.415Z,1.75
2023-07-24T02:09:09.099Z,1.83
2023-07-24T02:11:35.917Z,1.42
2023-07-24T02:14:02.690Z,1.83
2023-07-24T02:16:29.503Z,2.13
2023-07-24T02:18:56.740Z,1.52
2023-07-24T02:21:23.628Z,1.88
2023-07-24T02:23:50.277Z,1.45
2023-07-24T02:26:16.991Z,1.35
2023-07-24T02:28:43.606Z,1.42
2023-07-24T02:31:10.471Z,1.75
2023-07-24T02:33:37.147Z,1.50
2023-07-24T02:36:04.037Z,1.75
2023-07-24T02:38:30.794Z,1.20
2023-07-24T02:40:58.016Z,1.65
2023-07-24T02:43:24.766Z,1.95
2023-07-24T02:45:51.412Z,1.30
2023-07-24T02:48:18.514Z,1.77
2023-07-24T02:50:45.212Z,1.40
2023-07-24T02:53:12.023Z,1.67
2023-07-24T02:55:44.386Z,2.13
2023-07-24T02:58:13.570Z,1.40
2023-07-24T03:00:40.805Z,1.48
2023-07-24T03:03:07.989Z,1.60
2023-07-24T03:05:38.025Z,1.52
2023-07-24T03:08:05.028Z,1.40
2023-07-24T03:10:31.697Z,2.10
2023-07-24T03:12:58.391Z,1.92
2023-07-24T03:15:25.058Z,2.03
2023-07-24T03:17:53.035Z,1.73
2023-07-24T03:20:20.940Z,1.20
2023-07-24T03:22:47.570Z,1.58
2023-07-24T03:25:14.695Z,1.75
2023-07-24T03:27:41.430Z,1.90
2023-07-24T03:30:08.588Z,1.35
2023-07-24T03:32:38.827Z,1.60
2023-07-24T03:35:07.402Z,1.75
2023-07-24T03:37:37.154Z,1.50
2023-07-24T03:40:05.270Z,1.85
2023-07-24T03:42:32.602Z,1.88
2023-07-24T03:44:59.653Z,1.63
2023-07-24T03:47:27.024Z,1.52
2023-07-24T03:49:53.839Z,1.90
2023-07-24T03:52:20.639Z,1.52
2023-07-24T03:54:47.651Z,1.42
2023-07-24T03:57:14.359Z,1.73
2023-07-24T03:59:41.028Z,2.03
2023-07-24T04:02:10.456Z,2.15
2023-07-24T04:04:38.324Z,1.90
2023-07-24T04:07:05.621Z,1.95
2023-07-24T04:09:32.527Z,1.90
2023-07-24T04:11:59.155Z,1.77
2023-07-24T04:14:25.761Z,1.88
2023-07-24T04:16:52.594Z,1.80
2023-07-24T04:19:19.289Z,1.98
2023-07-24T04:21:45.896Z,2.25
2023-07-24T04:24:12.603Z,2.20
2023-07-24T04:26:41.019Z,1.40
2023-07-24T04:29:08.187Z,1.55
2023-07-24T04:31:34.919Z,1.83
2023-07-24T04:34:01.652Z,1.70
2023-07-24T04:36:28.615Z,1.90
2023-07-24T04:38:55.428Z,1.80
2023-07-24T04:41:21.997Z,1.58
2023-07-24T04:43:48.661Z,1.80
2023-07-24T04:46:15.415Z,1.77
2023-07-24T04:48:42.231Z,1.70
2023-07-24T04:51:08.942Z,1.65
2023-07-24T04:53:35.743Z,2.28
2023-07-24T04:56:02.356Z,1.67
2023-07-24T04:58:29.040Z,1.80
2023-07-24T05:00:55.680Z,2.13
2023-07-24T05:03:22.446Z,1.63
2023-07-24T05:05:50.522Z,1.55
2023-07-24T05:08:17.149Z,1.60
2023-07-24T05:10:43.872Z,2.00
2023-07-24T05:13:13.443Z,1.90
2023-07-24T05:15:40.389Z,1.77
2023-07-24T05:18:07.060Z,1.90
2023-07-24T05:20:33.945Z,1.88
2023-07-24T05:23:01.244Z,1.95
2023-07-24T05:25:27.894Z,1.98
2023-07-24T05:27:54.511Z,2.25
2023-07-24T05:30:21.176Z,2.40
2023-07-24T05:32:48.319Z,1.90
2023-07-24T05:35:15.349Z,1.98
2023-07-24T05:37:42.388Z,2.40
2023-07-24T05:40:10.251Z,2.15
2023-07-24T05:42:42.555Z,2.30
2023-07-24T05:45:09.617Z,2.13
2023-07-24T05:47:36.166Z,1.63
2023-07-24T05:50:02.783Z,2.30
2023-07-24T05:52:29.885Z,2.30
2023-07-24T05:54:56.496Z,2.05
2023-07-24T05:57:23.133Z,1.77
2023-07-24T05:59:51.369Z,1.63
2023-07-24T06:02:18.016Z,2.30
2023-07-24T06:04:44.671Z,2.40
2023-07-24T06:07:11.302Z,1.70
2023-07-24T06:09:37.890Z,1.92
2023-07-24T06:12:04.912Z,2.25
2023-07-24T06:14:31.506Z,2.10
2023-07-24T06:16:58.263Z,2.17
2023-07-24T06:19:24.931Z,2.67
2023-07-24T06:21:51.727Z,2.40
2023-07-24T06:24:19.196Z,2.17
2023-07-24T06:26:46.368Z,2.38
2023-07-24T06:29:12.996Z,2.15
2023-07-24T06:31:39.589Z,2.17
2023-07-24T06:34:06.226Z,1.60
2023-07-24T06:36:33.054Z,2.38
2023-07-24T06:38:59.783Z,1.77
2023-07-24T06:41:26.510Z,1.75
2023-07-24T06:43:53.084Z,2.30
2023-07-24T06:46:19.737Z,2.17
2023-07-24T06:48:46.336Z,1.90
2023-07-24T06:51:12.973Z,1.80
2023-07-24T06:53:39.545Z,2.40
2023-07-24T06:56:06.140Z,2.15
2023-07-24T06:58:32.704Z,1.95
2023-07-24T07:00:59.376Z,1.83
2023-07-24T07:03:26.056Z,2.10
2023-07-24T07:05:52.643Z,2.58
2023-07-24T07:08:19.207Z,2.40
2023-07-24T07:10:45.981Z,2.33
2023-07-24T07:13:12.551Z,2.22
2023-07-24T07:15:39.242Z,2.40
2023-07-24T07:18:05.883Z,2.72
2023-07-24T07:20:32.445Z,2.28
2023-07-24T07:22:59.020Z,2.13
2023-07-24T07:25:25.546Z,2.00
2023-07-24T07:27:52.262Z,2.05
2023-07-24T07:30:18.827Z,1.65
2023-07-24T07:32:45.465Z,2.60
2023-07-24T07:35:12.076Z,2.60
2023-07-24T07:37:38.667Z,1.95
2023-07-24T07:40:06.002Z,2.13
2023-07-24T07:42:32.614Z,1.92
2023-07-24T07:44:59.182Z,1.63
2023-07-24T07:47:25.842Z,2.22
2023-07-24T07:49:52.431Z,2.17
2023-07-24T07:52:19.273Z,2.30
2023-07-24T07:54:49.784Z,2.50
2023-07-24T07:57:16.774Z,2.05
2023-07-24T07:59:43.508Z,2.13
2023-07-24T08:02:10.170Z,2.15
2023-07-24T08:04:36.772Z,2.30
2023-07-24T08:07:03.652Z,2.00
2023-07-24T08:09:30.328Z,2.70
2023-07-24T08:11:56.917Z,2.25
2023-07-24T08:14:23.523Z,2.65
2023-07-24T08:16:50.756Z,2.63
2023-07-24T08:19:17.402Z,3.03
2023-07-24T08:21:44.002Z,2.33
2023-07-24T08:24:10.554Z,2.58
2023-07-24T08:26:37.161Z,2.60
2023-07-24T08:29:03.894Z,2.65
2023-07-24T08:31:31.277Z,2.10
2023-07-24T08:33:57.948Z,2.08
2023-07-24T08:36:24.577Z,2.33
2023-07-24T08:38:51.164Z,2.17
2023-07-24T08:41:17.791Z,1.88
2023-07-24T08:43:44.680Z,2.33
2023-07-24T08:46:11.552Z,2.53
2023-07-24T08:48:40.832Z,2.65
2023-07-24T08:51:11.552Z,2.40
2023-07-24T08:53:40.544Z,1.98
2023-07-24T08:56:09.316Z,2.67
2023-07-24T08:58:36.594Z,2.63
2023-07-24T09:01:05.019Z,2.90
2023-07-24T09:03:33.321Z,2.13
2023-07-24T09:06:02.561Z,2.17
2023-07-24T09:08:37.214Z,2.47
2023-07-24T09:11:05.432Z,2.65
2023-07-24T09:13:32.801Z,2.58
2023-07-24T09:16:03.744Z,2.78
2023-07-24T09:18:44.415Z,2.30
2023-07-24T09:21:15.005Z,2.50
2023-07-24T09:23:44.834Z,2.78
2023-07-24T09:26:11.451Z,2.50
2023-07-24T09:28:38.087Z,3.10
2023-07-24T09:31:05.955Z,2.80
2023-07-24T09:33:38.387Z,2.65
2023-07-24T09:36:06.586Z,3.03
2023-07-24T09:38:33.256Z,2.88
2023-07-24T09:41:02.622Z,2.92
2023-07-24T09:43:39.639Z,3.58
2023-07-24T09:46:28.316Z,3.10
2023-07-24T09:51:30.363Z,3.80
2023-07-24T09:54:02.771Z,3.30
2023-07-24T09:56:43.167Z,2.70
2023-07-24T09:59:15.058Z,3.95
2023-07-24T10:01:41.853Z,3.65
2023-07-24T10:04:08.889Z,4.60
2023-07-24T10:06:35.818Z,4.05
2023-07-24T10:09:02.729Z,4.30
2023-07-24T10:11:29.584Z,4.18
2023-07-24T10:13:56.933Z,3.75
2023-07-24T10:16:23.565Z,4.65
2023-07-24T10:18:50.277Z,3.97
2023-07-24T10:21:17.541Z,4.05
2023-07-24T10:23:47.682Z,3.40
2023-07-24T10:26:17.022Z,3.85
2023-07-24T10:28:43.826Z,3.22
2023-07-24T10:31:26.828Z,3.72
2023-07-24T10:36:23.377Z,3.25
2023-07-24T10:38:56.014Z,3.58
2023-07-24T10:41:22.700Z,3.42
2023-07-24T10:43:51.337Z,3.35
2023-07-24T10:46:20.483Z,3.35
2023-07-24T10:48:52.657Z,3.17
2023-07-24T10:51:22.130Z,3.57
2023-07-24T10:53:50.346Z,3.45
2023-07-24T10:56:18.007Z,3.83
2023-07-24T10:58:44.661Z,3.35
2023-07-24T11:01:15.507Z,3.63
2023-07-24T11:03:43.376Z,3.83
2023-07-24T11:06:15.984Z,3.42
2023-07-24T11:08:42.824Z,3.47
2023-07-24T11:11:09.878Z,3.50
2023-07-24T11:13:36.503Z,3.33
2023-07-24T11:16:08.121Z,3.40
2023-07-24T11:18:53.189Z,2.85
2023-07-24T11:21:21.116Z,2.70
2023-07-24T11:23:52.746Z,3.45
2023-07-24T11:26:27.801Z,3.15
2023-07-24T11:28:55.071Z,3.00
2023-07-24T11:31:22.148Z,2.80
2023-07-24T11:33:50.963Z,3.63
2023-07-24T11:36:17.750Z,3.05
2023-07-24T11:38:48.949Z,3.15
2023-07-24T11:41:17.492Z,3.53
2023-07-24T11:43:49.721Z,3.97
2023-07-24T11:46:27.912Z,3.05
2023-07-24T11:48:57.797Z,2.97
2023-07-24T11:51:28.005Z,3.28
2023-07-24T11:54:08.848Z,3.83
2023-07-24T11:56:35.911Z,3.20
2023-07-24T11:59:15.596Z,3.95
2023-07-24T12:01:46.528Z,4.47
2023-07-24T12:04:14.221Z,4.00
2023-07-24T12:06:41.179Z,3.58
2023-07-24T12:09:08.295Z,3.92
2023-07-24T12:11:41.771Z,3.83
2023-07-24T12:14:08.399Z,3.78
2023-07-24T12:16:36.146Z,3.55
2023-07-24T12:19:02.909Z,3.97
2023-07-24T12:21:29.983Z,3.60
2023-07-24T12:23:57.280Z,2.95
2023-07-24T12:26:26.310Z,3.97
2023-07-24T12:28:52.932Z,3.90
2023-07-24T12:31:19.531Z,3.70
2023-07-24T12:33:46.128Z,3.25
2023-07-24T12:36:12.683Z,3.05
2023-07-24T12:38:39.466Z,3.78
2023-07-24T12:41:06.131Z,3.53
2023-07-24T12:43:32.707Z,3.92
2023-07-24T12:45:59.380Z,3.50
2023-07-24T12:48:25.999Z,3.53
2023-07-24T12:50:53.072Z,4.47
2023-07-24T12:53:22.285Z,3.33
2023-07-24T12:55:51.200Z,3.25
2023-07-24T12:58:17.860Z,3.63
2023-07-24T13:00:44.478Z,3.15
2023-07-24T13:03:11.170Z,3.30
2023-07-24T13:05:38.933Z,2.92
2023-07-24T13:08:05.565Z,3.40
2023-07-24T13:10:32.232Z,3.45
2023-07-24T13:12:58.912Z,3.85
2023-07-24T13:15:25.553Z,3.20
2023-07-24T13:17:52.228Z,3.40
2023-07-24T13:20:18.999Z,3.30
2023-07-24T13:22:47.908Z,3.38
2023-07-24T13:25:14.683Z,3.35
2023-07-24T13:27:41.310Z,3.97
2023-07-24T13:30:08.313Z,3.45
2023-07-24T13:32:35.001Z,4.22
2023-07-24T13:35:01.572Z,3.40
2023-07-24T13:37:28.150Z,4.00
2023-07-24T13:39:54.751Z,3.60
2023-07-24T13:42:21.307Z,3.15
2023-07-24T13:44:47.905Z,3.28
2023-07-24T13:47:14.567Z,3.50
2023-07-24T13:49:41.098Z,3.15
2023-07-24T13:52:07.873Z,3.15
2023-07-24T13:54:36.831Z,2.67
2023-07-24T13:57:03.797Z,3.47
2023-07-24T13:59:30.438Z,3.78
2023-07-24T14:01:57.105Z,3.42
2023-07-24T14:04:23.829Z,3.65
2023-07-24T14:06:50.446Z,3.35
2023-07-24T14:09:17.289Z,2.88
2023-07-24T14:11:43.896Z,3.10
2023-07-24T14:14:10.482Z,3.13
2023-07-24T14:16:38.595Z,3.30
2023-07-24T14:19:07.320Z,3.78
2023-07-24T14:21:34.020Z,3.58
2023-07-24T14:24:00.722Z,3.13
2023-07-24T14:26:27.976Z,3.42
2023-07-24T14:28:56.732Z,3.28
2023-07-24T14:31:24.586Z,3.72
2023-07-24T14:33:51.406Z,3.60
2023-07-24T14:36:18.029Z,3.28
2023-07-24T14:38:44.568Z,4.13
2023-07-24T14:41:13.819Z,3.53
2023-07-24T14:43:43.628Z,3.40
2023-07-24T14:46:10.226Z,3.50
2023-07-24T14:48:36.801Z,3.60
2023-07-24T14:51:03.451Z,3.17
2023-07-24T14:53:30.082Z,3.28
2023-07-24T14:55:56.673Z,4.00
2023-07-24T14:58:23.421Z,3.42
2023-07-24T15:00:50.206Z,3.63
2023-07-24T15:03:16.884Z,3.42
2023-07-24T15:05:43.480Z,3.60
2023-07-24T15:08:10.034Z,4.40
2023-07-24T15:10:36.618Z,3.55
2023-07-24T15:13:03.221Z,3.47
2023-07-24T15:15:29.848Z,3.60
2023-07-24T15:17:57.404Z,3.47
2023-07-24T15:20:25.124Z,3.88
2023-07-24T15:22:54.188Z,4.13
2023-07-24T15:25:21.198Z,3.88
2023-07-24T15:27:48.049Z,3.83
2023-07-24T15:30:14.983Z,3.17
2023-07-24T15:32:41.585Z,3.55
2023-07-24T15:35:08.418Z,3.25
2023-07-24T15:37:35.053Z,3.38
2023-07-24T15:40:01.699Z,4.05
2023-07-24T15:42:28.508Z,3.60
2023-07-24T15:47:54.795Z,3.50
2023-07-24T15:50:29.210Z,2.72
2023-07-24T15:53:02.786Z,2.70
2023-07-24T15:55:29.863Z,3.20
2023-07-24T15:57:56.749Z,2.40
2023-07-24T16:00:27.722Z,2.25
2023-07-24T16:02:54.919Z,1.92
2023-07-24T16:05:23.164Z,2.40
2023-07-24T16:07:50.470Z,2.20
2023-07-24T16:10:20.317Z,1.90
2023-07-24T16:12:48.713Z,1.88
2023-07-24T16:24:01.443Z,2.25
2023-07-24T16:26:28.772Z,2.28
2023-07-24T16:28:55.576Z,2.05
2023-07-24T16:31:22.303Z,1.92
2023-07-24T16:33:49.945Z,3.03
2023-07-24T16:36:16.990Z,0.93
2023-07-24T16:38:43.743Z,1.05
2023-07-24T16:41:10.571Z,1.20
2023-07-24T16:43:41.580Z,1.00
2023-07-24T16:48:49.988Z,0.85
2023-07-24T16:51:17.607Z,1.20
2023-07-24T16:53:52.256Z,0.55
2023-07-24T16:56:19.839Z,0.80
2023-07-24T16:58:47.429Z,0.85
2023-07-24T17:01:17.432Z,0.98
2023-07-24T17:03:44.308Z,1.00
2023-07-24T17:06:11.157Z,0.68
2023-07-24T17:08:37.801Z,0.80
2023-07-24T17:11:04.636Z,0.82
2023-07-24T17:13:31.756Z,0.98
2023-07-24T17:15:58.498Z,1.10
2023-07-24T17:18:25.158Z,0.85
2023-07-24T17:20:52.035Z,0.80
2023-07-24T17:23:18.858Z,0.60
2023-07-24T17:25:49.374Z,0.65
2023-07-24T17:28:16.135Z,0.88
2023-07-24T17:30:43.013Z,0.70
2023-07-24T17:33:10.020Z,0.82
2023-07-24T17:35:36.788Z,0.80
2023-07-24T17:38:05.472Z,0.60
2023-07-24T17:40:34.678Z,1.15
2023-07-24T17:43:01.665Z,0.80
2023-07-24T17:45:28.724Z,0.70
2023-07-24T17:47:55.409Z,0.82
2023-07-24T17:50:24.542Z,0.80
2023-07-24T17:52:59.788Z,0.95
2023-07-24T17:55:28.973Z,0.88
2023-07-24T17:57:55.851Z,0.73
2023-07-24T18:00:23.548Z,0.70
2023-07-24T18:02:53.319Z,0.80
2023-07-24T18:05:21.841Z,0.70
2023-07-24T18:07:52.665Z,0.80
2023-07-24T18:10:21.394Z,0.80
2023-07-24T18:12:50.103Z,1.10
2023-07-24T18:15:16.939Z,1.05
2023-07-24T18:17:46.098Z,1.30
2023-07-24T18:20:13.011Z,1.02
2023-07-24T18:26:47.915Z,0.50
2023-07-24T18:34:25.541Z,0.90
2023-07-24T18:38:15.789Z,1.35
2023-07-24T18:48:23.181Z,1.08
2023-07-24T19:04:53.152Z,1.00
2023-07-24T20:41:40.850Z,1.15
2023-07-24T20:44:07.846Z,1.63
2023-07-24T20:46:34.795Z,1.23
2023-07-24T20:49:01.755Z,1.30
2023-07-24T20:51:29.013Z,1.40
2023-07-24T20:53:59.827Z,0.95
2023-07-24T20:56:27.021Z,1.30
2023-07-24T20:58:53.956Z,1.20
2023-07-24T21:01:24.301Z,1.23
2023-07-24T21:03:55.494Z,1.02
2023-07-24T21:06:22.468Z,1.20
2023-07-24T21:08:53.041Z,1.13
2023-07-24T21:11:26.898Z,1.10
2023-07-24T21:14:20.681Z,1.02
2023-07-24T21:17:02.509Z,0.95
2023-07-24T21:19:36.568Z,1.10
2023-07-24T21:22:03.750Z,0.90
2023-07-24T21:24:30.715Z,1.27
2023-07-24T21:26:57.518Z,1.02
2023-07-24T21:29:24.318Z,0.90
2023-07-24T21:31:51.410Z,1.10
2023-07-24T21:34:20.338Z,1.58
2023-07-24T21:36:47.231Z,1.35
2023-07-24T21:39:14.471Z,1.00
2023-07-24T21:41:48.395Z,1.00
2023-07-24T21:44:15.886Z,1.08
2023-07-24T21:46:53.603Z,0.70
2023-07-24T21:49:38.327Z,1.50
2023-07-24T21:52:12.736Z,0.52
2023-07-24T21:54:50.383Z,0.90
2023-07-24T21:57:19.409Z,0.70
2023-07-24T21:59:48.368Z,1.38
2023-07-24T22:02:23.554Z,1.10
2023-07-24T22:05:06.005Z,1.35
2023-07-24T22:07:33.691Z,1.10
2023-07-24T22:12:54.180Z,0.85
2023-07-24T22:15:21.512Z,1.30
2023-07-24T22:17:52.493Z,0.70
2023-07-24T22:20:40.543Z,0.55
2023-07-24T22:23:14.931Z,0.98
2023-07-24T22:25:57.723Z,0.93
2023-07-24T22:28:38.151Z,1.17
2023-07-24T22:31:10.233Z,0.80
2023-07-24T22:33:37.348Z,1.10
2023-07-24T22:36:04.547Z,0.80
2023-07-24T22:38:31.462Z,1.20
2023-07-24T22:41:02.440Z,0.85
2023-07-24T22:43:33.575Z,0.68
2023-07-24T22:46:07.684Z,0.70
2023-07-24T22:48:35.153Z,0.80
2023-07-24T22:51:15.523Z,0.90
2023-07-24T22:53:42.984Z,0.90
2023-07-24T22:56:10.193Z,0.98
2023-07-24T22:59:05.234Z,0.77
2023-07-24T23:01:33.761Z,0.60
2023-07-24T23:04:01.339Z,0.70
2023-07-24T23:06:28.242Z,0.63
2023-07-24T23:09:13.854Z,0.73
2023-07-24T23:11:44.012Z,0.95
2023-07-24T23:14:11.495Z,0.90
2023-07-24T23:16:53.315Z,0.70
2023-07-24T23:19:25.291Z,1.02
2023-07-24T23:21:57.520Z,0.65
2023-07-24T23:24:35.348Z,1.13
2023-07-24T23:27:02.677Z,0.60
2023-07-24T23:29:32.345Z,0.50
2023-07-24T23:32:05.434Z,0.80
2023-07-24T23:34:42.830Z,1.15
2023-07-24T23:37:09.896Z,0.98
2023-07-24T23:39:45.170Z,0.95
2023-07-24T23:42:17.620Z,0.80
2023-07-24T23:44:44.735Z,0.70
2023-07-24T23:47:14.163Z,0.70
2023-07-24T23:49:41.926Z,0.98
2023-07-24T23:52:20.972Z,0.82
2023-07-24T23:54:58.024Z,0.70
2023-07-24T23:57:29.469Z,0.80
2023-07-24T23:59:56.516Z,0.52
